createdAt,value
2023-09-24T00:01:01.083Z,14.10
2023-09-24T00:03:28.294Z,14.10
2023-09-24T00:05:55.873Z,14.00
2023-09-24T00:08:23.003Z,14.00
2023-09-24T00:10:59.200Z,13.90
2023-09-24T00:13:35.463Z,14.00
2023-09-24T00:16:07.888Z,14.00
2023-09-24T00:18:36.160Z,14.00
2023-09-24T00:21:04.122Z,14.00
2023-09-24T00:23:34.888Z,13.90
2023-09-24T00:26:01.896Z,13.90
2023-09-24T00:28:28.898Z,14.00
2023-09-24T00:30:56.791Z,13.80
2023-09-24T00:33:25.354Z,14.00
2023-09-24T00:35:54.964Z,13.90
2023-09-24T00:38:22.054Z,13.90
2023-09-24T00:40:49.128Z,13.70
2023-09-24T00:43:34.479Z,13.80
2023-09-24T00:46:11.280Z,13.70
2023-09-24T00:48:40.045Z,13.70
2023-09-24T00:51:24.184Z,13.70
2023-09-24T00:53:56.032Z,13.70
2023-09-24T00:56:24.009Z,13.70
2023-09-24T00:58:52.388Z,13.60
2023-09-24T01:01:26.026Z,13.60
2023-09-24T01:03:54.454Z,13.60
2023-09-24T01:06:22.966Z,13.70
2023-09-24T01:08:51.866Z,13.60
2023-09-24T01:11:18.862Z,13.60
2023-09-24T01:13:47.194Z,13.50
2023-09-24T01:16:16.512Z,13.70
2023-09-24T01:18:46.603Z,13.60
2023-09-24T01:21:19.095Z,13.50
2023-09-24T01:23:49.792Z,13.50
2023-09-24T01:26:19.470Z,13.50
2023-09-24T01:28:48.644Z,13.50
2023-09-24T01:31:22.215Z,13.40
2023-09-24T01:33:50.213Z,13.40
2023-09-24T01:36:19.304Z,13.40
2023-09-24T01:38:46.959Z,13.40
2023-09-24T01:41:14.057Z,13.30
2023-09-24T01:43:46.126Z,13.40
2023-09-24T01:46:16.571Z,13.40
2023-09-24T01:48:45.149Z,13.40
2023-09-24T01:51:12.960Z,13.30
2023-09-24T01:53:42.108Z,13.30
2023-09-24T01:56:09.828Z,13.30
2023-09-24T01:58:40.820Z,13.50
2023-09-24T02:01:11.033Z,13.20
2023-09-24T02:03:38.360Z,13.20
2023-09-24T02:06:06.860Z,13.10
2023-09-24T02:08:34.205Z,13.10
2023-09-24T02:11:01.317Z,13.20
2023-09-24T02:13:29.877Z,13.20
2023-09-24T02:16:03.154Z,13.20
2023-09-24T02:18:34.183Z,13.20
2023-09-24T02:21:01.796Z,13.20
2023-09-24T02:23:29.386Z,13.10
2023-09-24T02:25:56.944Z,13.10
2023-09-24T02:28:25.488Z,13.10
2023-09-24T02:30:55.118Z,13.10
2023-09-24T02:33:23.020Z,13.10
2023-09-24T02:35:50.703Z,13.00
2023-09-24T02:38:18.177Z,13.10
2023-09-24T02:40:45.202Z,13.00
2023-09-24T02:43:13.922Z,13.10
2023-09-24T02:45:41.180Z,13.00
2023-09-24T02:48:09.522Z,13.00
2023-09-24T02:50:45.350Z,13.00
2023-09-24T02:53:12.404Z,13.20
2023-09-24T02:55:40.991Z,13.20
2023-09-24T02:58:08.189Z,13.10
2023-09-24T03:00:37.932Z,13.00
2023-09-24T03:03:07.481Z,13.00
2023-09-24T03:05:36.972Z,13.00
2023-09-24T03:08:06.259Z,13.00
2023-09-24T03:10:35.418Z,13.00
2023-09-24T03:13:05.461Z,13.10
2023-09-24T03:15:35.484Z,12.80
2023-09-24T03:18:03.066Z,12.90
2023-09-24T03:20:31.422Z,12.90
2023-09-24T03:23:04.014Z,12.90
2023-09-24T03:25:38.783Z,12.90
2023-09-24T03:28:07.158Z,12.90
2023-09-24T03:30:34.770Z,12.90
2023-09-24T03:33:02.008Z,12.80
2023-09-24T03:35:30.795Z,13.00
2023-09-24T03:37:58.500Z,12.90
2023-09-24T03:40:28.487Z,12.90
2023-09-24T03:42:56.478Z,12.80
2023-09-24T03:45:25.404Z,12.80
2023-09-24T03:47:54.362Z,12.80
2023-09-24T03:50:21.792Z,12.80
2023-09-24T03:52:53.265Z,12.80
2023-09-24T03:55:21.102Z,12.70
2023-09-24T03:57:49.567Z,12.70
2023-09-24T04:00:20.984Z,12.80
2023-09-24T04:02:52.989Z,12.70
2023-09-24T04:05:24.472Z,12.80
2023-09-24T04:07:54.567Z,12.80
2023-09-24T04:10:24.127Z,12.80
2023-09-24T04:12:52.170Z,12.80
2023-09-24T04:15:28.958Z,13.00
2023-09-24T04:18:01.351Z,12.80
2023-09-24T04:20:30.892Z,12.80
2023-09-24T04:22:58.174Z,12.80
2023-09-24T04:25:27.426Z,12.80
2023-09-24T04:27:54.565Z,12.80
2023-09-24T04:30:23.499Z,12.80
2023-09-24T04:32:53.660Z,12.80
2023-09-24T04:35:22.008Z,12.70
2023-09-24T04:37:50.435Z,12.70
2023-09-24T04:40:17.842Z,12.70
2023-09-24T04:42:46.590Z,12.70
2023-09-24T04:45:15.935Z,12.70
2023-09-24T04:47:44.286Z,12.70
2023-09-24T04:50:13.816Z,12.70
2023-09-24T04:52:43.615Z,12.70
2023-09-24T04:55:11.804Z,12.70
2023-09-24T04:57:39.037Z,12.90
2023-09-24T05:00:06.825Z,12.70
2023-09-24T05:02:33.921Z,12.70
2023-09-24T05:05:01.139Z,12.60
2023-09-24T05:07:28.154Z,12.80
2023-09-24T05:09:55.431Z,12.70
2023-09-24T05:12:23.695Z,12.80
2023-09-24T05:14:50.872Z,12.70
2023-09-24T05:17:18.021Z,12.70
2023-09-24T05:19:44.949Z,12.70
2023-09-24T05:22:12.112Z,12.70
2023-09-24T05:24:39.107Z,12.90
2023-09-24T05:27:06.097Z,12.70
2023-09-24T05:29:33.271Z,13.00
2023-09-24T05:32:03.143Z,12.80
2023-09-24T05:34:30.396Z,12.90
2023-09-24T05:36:58.230Z,12.80
2023-09-24T05:39:25.268Z,12.90
2023-09-24T05:41:52.220Z,12.70
2023-09-24T05:44:19.199Z,12.70
2023-09-24T05:46:46.334Z,12.70
2023-09-24T05:49:13.350Z,13.00
2023-09-24T05:51:41.540Z,12.80
2023-09-24T05:54:08.951Z,12.80
2023-09-24T05:56:36.032Z,12.80
2023-09-24T05:59:03.894Z,12.70
2023-09-24T06:01:30.919Z,12.80
2023-09-24T06:03:58.161Z,12.80
2023-09-24T06:06:25.293Z,12.80
2023-09-24T06:08:54.854Z,12.80
2023-09-24T06:11:21.867Z,12.90
2023-09-24T06:13:49.185Z,12.90
2023-09-24T06:16:16.192Z,12.90
2023-09-24T06:18:43.639Z,12.90
2023-09-24T06:21:17.644Z,13.00
2023-09-24T06:23:44.730Z,13.00
2023-09-24T06:26:11.684Z,13.00
2023-09-24T06:28:38.642Z,13.00
2023-09-24T06:31:06.120Z,13.00
2023-09-24T06:33:33.294Z,13.10
2023-09-24T06:36:05.892Z,13.10
2023-09-24T06:38:34.225Z,13.10
2023-09-24T06:41:03.877Z,13.20
2023-09-24T06:43:34.634Z,13.20
2023-09-24T06:46:07.915Z,13.30
2023-09-24T06:48:35.152Z,13.30
2023-09-24T06:51:11.586Z,13.40
2023-09-24T06:53:39.784Z,13.50
2023-09-24T06:56:08.121Z,13.50
2023-09-24T06:58:36.761Z,13.60
2023-09-24T07:01:05.208Z,13.60
2023-09-24T07:03:32.978Z,13.70
2023-09-24T07:06:01.493Z,13.70
2023-09-24T07:08:28.580Z,13.80
2023-09-24T07:11:34.283Z,13.90
2023-09-24T07:14:02.243Z,14.00
2023-09-24T07:16:29.703Z,14.20
2023-09-24T07:18:58.155Z,14.10
2023-09-24T07:21:35.372Z,14.30
2023-09-24T07:24:04.814Z,14.30
2023-09-24T07:26:34.916Z,14.40
2023-09-24T07:29:02.747Z,14.50
2023-09-24T07:31:31.448Z,14.50
2023-09-24T07:34:02.100Z,14.80
2023-09-24T07:36:38.436Z,14.80
2023-09-24T07:39:10.268Z,14.70
2023-09-24T07:41:37.464Z,14.80
2023-09-24T07:44:05.132Z,14.90
2023-09-24T07:46:33.883Z,14.90
2023-09-24T07:49:04.774Z,15.00
2023-09-24T07:51:32.394Z,15.20
2023-09-24T07:53:59.379Z,15.20
2023-09-24T07:56:26.345Z,15.40
2023-09-24T07:58:53.924Z,15.40
2023-09-24T08:01:23.931Z,15.60
2023-09-24T08:03:53.613Z,15.70
2023-09-24T08:06:21.891Z,15.80
2023-09-24T08:09:00.067Z,15.80
2023-09-24T08:11:36.261Z,15.80
2023-09-24T08:14:03.547Z,16.00
2023-09-24T08:16:30.541Z,15.90
2023-09-24T08:19:01.333Z,16.10
2023-09-24T08:21:29.701Z,16.10
2023-09-24T08:23:58.224Z,16.20
2023-09-24T08:26:25.704Z,16.30
2023-09-24T08:28:52.960Z,16.30
2023-09-24T08:31:22.048Z,16.40
2023-09-24T08:33:49.368Z,16.40
2023-09-24T08:36:17.180Z,16.50
2023-09-24T08:38:44.336Z,16.60
2023-09-24T08:41:12.978Z,16.70
2023-09-24T08:43:44.335Z,16.80
2023-09-24T08:46:12.386Z,16.90
2023-09-24T08:48:42.405Z,17.00
2023-09-24T08:51:11.573Z,17.00
2023-09-24T08:53:43.488Z,17.10
2023-09-24T08:56:13.275Z,17.10
2023-09-24T08:58:41.345Z,17.20
2023-09-24T09:01:12.870Z,17.20
2023-09-24T09:03:41.394Z,17.30
2023-09-24T09:06:09.193Z,17.50
2023-09-24T09:08:53.741Z,17.50
2023-09-24T09:11:22.319Z,17.50
2023-09-24T09:13:50.393Z,17.50
2023-09-24T09:16:21.896Z,17.60
2023-09-24T09:19:02.505Z,17.70
2023-09-24T09:21:31.197Z,17.80
2023-09-24T09:23:58.485Z,18.00
2023-09-24T09:26:31.941Z,17.90
2023-09-24T09:28:58.911Z,18.10
2023-09-24T09:31:26.268Z,18.10
2023-09-24T09:33:54.178Z,18.20
2023-09-24T09:36:29.517Z,18.30
2023-09-24T09:39:01.962Z,18.40
2023-09-24T09:41:32.676Z,18.40
2023-09-24T09:44:06.044Z,18.60
2023-09-24T09:46:39.067Z,18.60
2023-09-24T09:49:09.113Z,18.60
2023-09-24T09:51:56.020Z,18.80
2023-09-24T09:54:24.516Z,18.80
2023-09-24T09:56:53.623Z,18.90
2023-09-24T09:59:21.998Z,19.00
2023-09-24T10:01:49.894Z,19.00
2023-09-24T10:04:19.290Z,19.10
2023-09-24T10:06:47.760Z,19.10
2023-09-24T10:09:32.685Z,19.20
2023-09-24T10:12:03.323Z,19.30
2023-09-24T10:14:38.780Z,19.40
2023-09-24T10:17:18.192Z,19.40
2023-09-24T10:19:55.449Z,19.50
2023-09-24T10:22:31.265Z,19.50
2023-09-24T10:24:59.101Z,19.70
2023-09-24T10:27:32.779Z,19.80
2023-09-24T10:30:05.443Z,19.90
2023-09-24T10:32:44.090Z,20.00
2023-09-24T10:35:15.021Z,20.00
2023-09-24T10:38:00.373Z,20.10
2023-09-24T10:40:29.222Z,20.20
2023-09-24T10:43:11.826Z,20.20
2023-09-24T10:45:38.813Z,20.30
2023-09-24T10:48:06.195Z,20.40
2023-09-24T10:50:33.403Z,20.50
2023-09-24T10:53:02.878Z,20.60
2023-09-24T10:55:30.764Z,20.60
2023-09-24T10:58:15.357Z,20.70
2023-09-24T11:00:50.578Z,20.70
2023-09-24T11:03:18.368Z,20.80
2023-09-24T11:05:50.528Z,20.80
2023-09-24T11:08:20.704Z,20.90
2023-09-24T11:10:49.973Z,21.00
2023-09-24T11:13:17.814Z,21.10
2023-09-24T11:15:45.300Z,21.20
2023-09-24T11:18:14.898Z,21.20
2023-09-24T11:20:52.592Z,21.20
2023-09-24T11:23:20.402Z,21.30
2023-09-24T11:25:49.432Z,21.40
2023-09-24T11:28:19.976Z,21.40
2023-09-24T11:30:50.468Z,21.50
2023-09-24T11:33:23.081Z,21.50
2023-09-24T11:35:52.350Z,21.50
2023-09-24T11:38:34.086Z,21.60
2023-09-24T11:41:13.879Z,21.70
2023-09-24T11:43:42.475Z,21.80
2023-09-24T11:46:23.638Z,21.80
2023-09-24T11:48:51.801Z,21.90
2023-09-24T11:51:21.425Z,21.90
2023-09-24T11:53:48.429Z,22.00
2023-09-24T11:56:16.244Z,22.10
2023-09-24T11:58:43.331Z,22.20
2023-09-24T12:01:12.435Z,22.30
2023-09-24T12:03:40.264Z,22.30
2023-09-24T12:06:07.932Z,22.30
2023-09-24T12:08:37.037Z,22.40
2023-09-24T12:11:03.937Z,22.50
2023-09-24T12:13:32.320Z,22.50
2023-09-24T12:15:59.993Z,22.60
2023-09-24T12:18:28.550Z,22.70
2023-09-24T12:20:55.910Z,22.80
2023-09-24T12:23:23.700Z,22.80
2023-09-24T12:25:50.612Z,22.90
2023-09-24T12:28:17.920Z,22.90
2023-09-24T12:30:46.171Z,22.90
2023-09-24T12:33:15.759Z,23.00
2023-09-24T12:35:43.687Z,23.10
2023-09-24T12:38:11.072Z,23.20
2023-09-24T12:40:38.564Z,23.20
2023-09-24T12:43:07.827Z,23.20
2023-09-24T12:45:36.265Z,23.30
2023-09-24T12:48:03.795Z,23.40
2023-09-24T12:50:30.952Z,23.50
2023-09-24T12:52:58.227Z,23.50
2023-09-24T12:55:27.644Z,23.50
2023-09-24T12:57:54.629Z,23.60
2023-09-24T13:00:23.251Z,23.60
2023-09-24T13:02:50.534Z,23.50
2023-09-24T13:05:20.279Z,23.50
2023-09-24T13:07:48.373Z,23.50
2023-09-24T13:10:17.431Z,23.60
2023-09-24T13:12:45.915Z,23.60
2023-09-24T13:15:14.214Z,23.70
2023-09-24T13:17:42.082Z,23.80
2023-09-24T13:20:12.364Z,23.90
2023-09-24T13:22:40.364Z,23.90
2023-09-24T13:25:07.811Z,24.00
2023-09-24T13:27:37.698Z,24.00
2023-09-24T13:30:07.217Z,24.10
2023-09-24T13:32:37.105Z,24.20
2023-09-24T13:35:08.408Z,24.20
2023-09-24T13:37:36.172Z,24.20
2023-09-24T13:40:05.297Z,24.20
2023-09-24T13:42:32.635Z,24.30
2023-09-24T13:44:59.735Z,24.40
2023-09-24T13:47:26.817Z,24.50
2023-09-24T13:49:53.802Z,24.50
2023-09-24T13:52:20.681Z,24.60
2023-09-24T13:54:47.569Z,24.70
2023-09-24T13:57:14.527Z,24.70
2023-09-24T13:59:41.653Z,24.80
2023-09-24T14:02:10.142Z,24.70
2023-09-24T14:04:37.467Z,24.70
2023-09-24T14:07:04.483Z,24.70
2023-09-24T14:09:49.777Z,24.80
2023-09-24T14:12:25.345Z,24.80
2023-09-24T14:14:54.447Z,24.80
2023-09-24T14:17:22.149Z,24.90
2023-09-24T14:19:49.601Z,25.00
2023-09-24T14:22:16.636Z,25.10
2023-09-24T14:24:44.562Z,25.20
2023-09-24T14:27:11.709Z,25.30
2023-09-24T14:29:38.890Z,25.20
2023-09-24T14:32:06.061Z,25.30
2023-09-24T14:34:33.438Z,25.40
2023-09-24T14:37:00.387Z,25.60
2023-09-24T14:39:27.393Z,25.60
2023-09-24T14:41:54.380Z,25.80
2023-09-24T14:44:22.290Z,25.80
2023-09-24T14:46:49.496Z,25.90
2023-09-24T14:49:19.980Z,25.90
2023-09-24T14:51:47.075Z,25.90
2023-09-24T14:54:14.139Z,25.90
2023-09-24T14:56:41.236Z,26.00
2023-09-24T14:59:09.481Z,26.10
2023-09-24T15:01:39.518Z,26.10
2023-09-24T15:04:07.608Z,26.20
2023-09-24T15:06:34.685Z,26.20
2023-09-24T15:09:01.719Z,26.20
2023-09-24T15:11:28.654Z,26.30
2023-09-24T15:13:55.896Z,26.30
2023-09-24T15:16:22.855Z,26.40
2023-09-24T15:18:50.190Z,26.20
2023-09-24T15:21:18.812Z,26.30
2023-09-24T15:23:48.563Z,26.30
2023-09-24T15:26:15.941Z,26.40
2023-09-24T15:28:43.205Z,26.60
2023-09-24T15:31:12.498Z,26.70
2023-09-24T15:33:39.541Z,26.60
2023-09-24T15:36:08.864Z,26.60
2023-09-24T15:38:37.749Z,26.30
2023-09-24T15:41:04.784Z,26.40
2023-09-24T15:43:33.607Z,26.30
2023-09-24T15:46:01.714Z,26.00
2023-09-24T15:48:29.161Z,26.00
2023-09-24T15:50:56.343Z,26.20
2023-09-24T15:53:23.662Z,26.20
2023-09-24T15:55:50.681Z,26.20
2023-09-24T15:58:17.764Z,26.30
2023-09-24T16:00:44.993Z,26.40
2023-09-24T16:03:12.286Z,26.30
2023-09-24T16:05:45.667Z,26.20
2023-09-24T16:08:12.751Z,26.30
2023-09-24T16:10:42.701Z,26.30
2023-09-24T16:13:09.685Z,26.20
2023-09-24T16:15:36.922Z,26.40
2023-09-24T16:18:04.248Z,26.60
2023-09-24T16:20:36.366Z,26.60
2023-09-24T16:23:04.172Z,26.70
2023-09-24T16:25:31.347Z,26.70
2023-09-24T16:27:59.645Z,26.60
2023-09-24T16:30:26.747Z,26.70
2023-09-24T16:32:53.957Z,26.70
2023-09-24T16:35:21.732Z,26.60
2023-09-24T16:37:49.922Z,26.60
2023-09-24T16:40:17.027Z,26.20
2023-09-24T16:42:47.466Z,25.90
2023-09-24T16:45:14.584Z,25.80
2023-09-24T16:47:43.530Z,25.40
2023-09-24T16:50:10.956Z,24.80
2023-09-24T16:52:39.246Z,24.50
2023-09-24T16:55:06.837Z,24.20
2023-09-24T16:57:33.823Z,23.90
2023-09-24T17:00:02.321Z,23.60
2023-09-24T17:02:29.362Z,23.30
2023-09-24T17:04:56.428Z,23.00
2023-09-24T17:07:23.530Z,22.80
2023-09-24T17:09:50.461Z,22.60
2023-09-24T17:12:17.490Z,22.30
2023-09-24T17:14:45.580Z,22.20
2023-09-24T17:17:13.926Z,22.00
2023-09-24T17:19:40.876Z,22.00
2023-09-24T17:22:07.825Z,21.90
2023-09-24T17:24:34.992Z,21.70
2023-09-24T17:27:01.896Z,21.70
2023-09-24T17:29:29.885Z,21.60
2023-09-24T17:31:56.907Z,21.50
2023-09-24T17:34:23.863Z,21.40
2023-09-24T17:36:50.807Z,21.20
2023-09-24T17:39:18.151Z,21.10
2023-09-24T17:41:47.101Z,21.10
2023-09-24T17:44:14.701Z,21.00
2023-09-24T17:46:42.139Z,20.90
2023-09-24T17:49:09.401Z,20.90
2023-09-24T17:51:36.465Z,20.90
2023-09-24T17:54:03.618Z,20.80
2023-09-24T17:56:30.574Z,20.80
2023-09-24T17:58:57.578Z,20.70
2023-09-24T18:01:28.810Z,20.60
2023-09-24T18:03:56.277Z,20.50
2023-09-24T18:06:23.780Z,20.50
2023-09-24T18:08:51.192Z,20.40
2023-09-24T18:11:19.368Z,20.30
2023-09-24T18:13:46.512Z,20.20
2023-09-24T18:16:15.636Z,20.10
2023-09-24T18:18:42.805Z,20.00
2023-09-24T18:21:10.159Z,19.90
2023-09-24T18:23:38.375Z,19.90
2023-09-24T18:26:06.309Z,19.90
2023-09-24T18:28:33.321Z,19.70
2023-09-24T18:31:01.387Z,19.70
2023-09-24T18:33:29.595Z,19.70
2023-09-24T18:35:58.259Z,19.60
2023-09-24T18:38:26.502Z,19.60
2023-09-24T18:40:56.184Z,19.60
2023-09-24T18:43:24.223Z,19.50
2023-09-24T18:45:54.572Z,19.50
2023-09-24T18:48:22.186Z,19.40
2023-09-24T18:50:50.307Z,19.40
2023-09-24T18:53:17.517Z,19.30
2023-09-24T18:55:45.203Z,19.30
2023-09-24T18:58:12.241Z,19.10
2023-09-24T19:00:39.239Z,19.10
2023-09-24T19:03:10.072Z,19.00
2023-09-24T19:05:38.989Z,19.00
2023-09-24T19:08:06.586Z,18.90
2023-09-24T19:10:33.875Z,18.90
2023-09-24T19:13:00.869Z,18.90
2023-09-24T19:15:28.101Z,18.90
2023-09-24T19:17:56.299Z,18.90
2023-09-24T19:20:23.390Z,18.80
2023-09-24T19:22:50.419Z,18.80
2023-09-24T19:25:17.624Z,18.70
2023-09-24T19:27:44.540Z,18.70
2023-09-24T19:30:12.318Z,18.70
2023-09-24T19:32:39.472Z,18.80
2023-09-24T19:35:06.879Z,18.80
2023-09-24T19:37:33.844Z,18.80
2023-09-24T19:40:00.879Z,18.80
2023-09-24T19:42:27.986Z,18.80
2023-09-24T19:44:55.038Z,18.80
2023-09-24T19:47:22.248Z,18.70
2023-09-24T19:49:50.928Z,18.60
2023-09-24T19:52:17.882Z,18.60
2023-09-24T19:54:44.929Z,18.60
2023-09-24T19:57:11.976Z,18.60
2023-09-24T19:59:39.444Z,18.60
2023-09-24T20:02:06.503Z,18.60
2023-09-24T20:04:33.598Z,18.60
2023-09-24T20:07:03.349Z,18.60
2023-09-24T20:09:32.984Z,18.60
2023-09-24T20:12:00.219Z,18.60
2023-09-24T20:14:27.583Z,18.60
2023-09-24T20:16:54.591Z,18.60
2023-09-24T20:19:24.037Z,18.50
2023-09-24T20:21:52.432Z,18.50
2023-09-24T20:24:19.548Z,18.40
2023-09-24T20:26:46.943Z,18.40
2023-09-24T20:29:14.055Z,18.40
2023-09-24T20:31:44.107Z,18.40
2023-09-24T20:34:11.686Z,18.40
2023-09-24T20:36:39.411Z,18.30
2023-09-24T20:39:09.519Z,18.30
2023-09-24T20:41:39.062Z,18.30
2023-09-24T20:44:08.869Z,18.30
2023-09-24T20:46:44.168Z,18.20
2023-09-24T20:49:11.476Z,18.30
2023-09-24T20:51:39.674Z,18.20
2023-09-24T20:54:06.813Z,18.20
2023-09-24T20:56:35.754Z,18.10
2023-09-24T20:59:09.609Z,18.10
2023-09-24T21:01:41.621Z,18.10
2023-09-24T21:04:09.348Z,18.10
2023-09-24T21:06:36.963Z,18.00
2023-09-24T21:09:04.275Z,17.90
2023-09-24T21:11:31.355Z,17.90
2023-09-24T21:13:58.622Z,17.80
2023-09-24T21:16:26.228Z,17.80
2023-09-24T21:18:54.926Z,17.80
2023-09-24T21:21:22.250Z,17.80
2023-09-24T21:23:49.146Z,17.90
2023-09-24T21:26:16.479Z,17.70
2023-09-24T21:28:45.697Z,17.60
2023-09-24T21:31:12.638Z,17.60
2023-09-24T21:33:39.806Z,17.60
2023-09-24T21:36:07.606Z,17.70
2023-09-24T21:38:35.044Z,17.60
2023-09-24T21:41:02.122Z,17.60
2023-09-24T21:43:33.081Z,17.60
2023-09-24T21:46:01.552Z,17.60
2023-09-24T21:48:29.719Z,17.50
2023-09-24T21:50:57.171Z,17.40
2023-09-24T21:53:24.096Z,17.40
2023-09-24T21:55:51.159Z,17.30
2023-09-24T21:58:18.952Z,17.30
2023-09-24T22:00:46.055Z,17.30
2023-09-24T22:03:13.445Z,17.20
2023-09-24T22:05:44.569Z,17.20
2023-09-24T22:08:11.959Z,17.10
2023-09-24T22:10:38.914Z,17.10
2023-09-24T22:13:05.847Z,17.10
2023-09-24T22:15:32.885Z,17.10
2023-09-24T22:18:00.328Z,17.00
2023-09-24T22:20:27.358Z,17.00
2023-09-24T22:22:54.374Z,17.00
2023-09-24T22:25:21.777Z,16.90
2023-09-24T22:27:48.866Z,16.90
2023-09-24T22:30:16.481Z,16.80
2023-09-24T22:32:44.552Z,16.80
2023-09-24T22:35:16.788Z,16.80
2023-09-24T22:37:46.412Z,16.80
2023-09-24T22:40:16.733Z,16.80
2023-09-24T22:42:45.121Z,16.60
2023-09-24T22:45:19.952Z,16.60
2023-09-24T22:47:47.958Z,16.50
2023-09-24T22:50:15.083Z,16.50
2023-09-24T22:52:42.463Z,16.40
2023-09-24T22:55:11.695Z,16.40
2023-09-24T22:57:40.184Z,16.30
2023-09-24T23:00:13.066Z,16.30
2023-09-24T23:02:40.091Z,16.10
2023-09-24T23:05:07.892Z,16.20
2023-09-24T23:07:35.111Z,16.20
2023-09-24T23:10:02.597Z,16.20
2023-09-24T23:12:29.816Z,16.20
2023-09-24T23:14:56.721Z,16.30
2023-09-24T23:17:23.813Z,16.00
2023-09-24T23:19:50.780Z,16.10
2023-09-24T23:22:18.355Z,16.10
2023-09-24T23:24:45.342Z,16.10
2023-09-24T23:27:13.898Z,16.10
2023-09-24T23:29:41.085Z,16.00
2023-09-24T23:32:11.284Z,16.00
2023-09-24T23:34:40.272Z,16.00
2023-09-24T23:37:07.608Z,16.00
2023-09-24T23:39:34.549Z,16.00
2023-09-24T23:42:02.675Z,15.90
2023-09-24T23:44:29.663Z,15.90
2023-09-24T23:46:56.867Z,16.00
2023-09-24T23:49:23.948Z,15.90
2023-09-24T23:51:53.299Z,15.80
2023-09-24T23:54:21.996Z,15.80
2023-09-24T23:56:48.998Z,15.70
2023-09-24T23:59:16.260Z,15.70
